createdAt,value
2019-05-25T00:00:30.138Z,46.20
2019-05-25T00:01:30.176Z,45.99
2019-05-25T00:02:30.085Z,46.30
2019-05-25T00:03:30.078Z,45.99
2019-05-25T00:04:30.072Z,46.50
2019-05-25T00:05:30.047Z,46.30
2019-05-25T00:06:30.037Z,45.99
2019-05-25T00:07:30.036Z,46.70
2019-05-25T00:08:30.031Z,46.30
2019-05-25T00:09:30.006Z,46.40
2019-05-25T00:10:30.004Z,46.20
2019-05-25T00:11:29.976Z,46.22
2019-05-25T00:12:30.010Z,46.60
2019-05-25T00:13:29.957Z,47.20
2019-05-25T00:14:29.947Z,46.62
2019-05-25T00:15:29.963Z,47.83
2019-05-25T00:16:29.936Z,47.53
2019-05-25T00:17:29.940Z,47.43
2019-05-25T00:18:29.913Z,47.33
2019-05-25T00:19:29.894Z,47.53
2019-05-25T00:20:29.886Z,47.53
2019-05-25T00:21:29.880Z,48.03
2019-05-25T00:22:29.858Z,47.53
2019-05-25T00:23:29.861Z,47.53
2019-05-25T00:24:29.833Z,47.94
2019-05-25T00:25:29.831Z,47.53
2019-05-25T00:26:29.831Z,47.83
2019-05-25T00:27:29.807Z,47.83
2019-05-25T00:28:29.817Z,47.45
2019-05-25T00:29:29.786Z,48.26
2019-05-25T00:30:29.767Z,48.77
2019-05-25T00:31:29.765Z,48.46
2019-05-25T00:32:29.756Z,48.34
2019-05-25T00:33:30.517Z,48.06
2019-05-25T00:34:29.721Z,49.07
2019-05-25T00:35:29.732Z,48.36
2019-05-25T00:36:29.709Z,48.57
2019-05-25T00:37:29.691Z,48.57
2019-05-25T00:38:29.691Z,49.07
2019-05-25T00:39:29.663Z,49.48
2019-05-25T00:40:29.673Z,49.17
2019-05-25T00:41:29.658Z,49.17
2019-05-25T00:42:29.639Z,49.68
2019-05-25T00:43:29.626Z,49.30
2019-05-25T00:44:29.623Z,48.99
2019-05-25T00:45:29.641Z,49.60
2019-05-25T00:46:29.605Z,49.10
2019-05-25T00:47:29.585Z,48.99
2019-05-25T00:48:29.574Z,49.60
2019-05-25T00:49:29.559Z,49.60
2019-05-25T00:50:29.575Z,48.99
2019-05-25T00:51:29.533Z,48.90
2019-05-25T00:52:29.541Z,49.70
2019-05-25T00:53:29.513Z,48.99
2019-05-25T00:54:29.502Z,49.30
2019-05-25T00:55:29.501Z,49.30
2019-05-25T00:56:29.474Z,49.50
2019-05-25T00:57:29.515Z,49.80
2019-05-25T00:58:29.462Z,49.90
2019-05-25T00:59:29.441Z,50.13
2019-05-25T01:00:29.448Z,50.03
2019-05-25T01:01:29.437Z,50.54
2019-05-25T01:02:29.408Z,50.34
2019-05-25T01:03:29.505Z,50.84
2019-05-25T01:04:29.400Z,50.43
2019-05-25T01:05:29.379Z,51.04
2019-05-25T01:06:29.376Z,51.14
2019-05-25T01:07:29.364Z,51.37
2019-05-25T01:08:29.367Z,51.27
2019-05-25T01:09:29.338Z,51.07
2019-05-25T01:10:29.320Z,51.27
2019-05-25T01:11:29.317Z,51.57
2019-05-25T01:12:29.296Z,51.78
2019-05-25T01:13:29.308Z,52.69
2019-05-25T01:14:29.298Z,51.07
2019-05-25T01:15:29.271Z,51.98
2019-05-25T01:16:29.258Z,52.18
2019-05-25T01:17:29.244Z,52.39
2019-05-25T01:18:29.326Z,52.00
2019-05-25T01:19:29.216Z,53.02
2019-05-25T01:20:29.226Z,52.81
2019-05-25T01:21:29.210Z,52.81
2019-05-25T01:22:29.197Z,52.41
2019-05-25T01:23:29.178Z,52.51
2019-05-25T01:24:43.365Z,52.00
2019-05-25T01:25:30.159Z,52.00
2019-05-25T01:26:29.150Z,52.00
2019-05-25T01:27:29.134Z,52.11
2019-05-25T01:28:29.124Z,52.41
2019-05-25T01:29:29.114Z,52.51
2019-05-25T01:30:29.116Z,53.12
2019-05-25T01:31:29.085Z,53.04
2019-05-25T01:32:29.082Z,53.42
2019-05-25T01:33:29.080Z,53.85
2019-05-25T01:34:29.053Z,53.45
2019-05-25T01:35:29.224Z,53.55
2019-05-25T01:36:29.032Z,53.34
2019-05-25T01:37:29.018Z,53.85
2019-05-25T01:38:29.021Z,53.85
2019-05-25T01:39:29.004Z,54.36
2019-05-25T01:40:29.025Z,54.28
2019-05-25T01:41:28.978Z,54.97
2019-05-25T01:42:28.963Z,54.79
2019-05-25T01:43:28.956Z,55.10
2019-05-25T01:44:28.950Z,55.30
2019-05-25T01:45:28.931Z,55.71
2019-05-25T01:46:28.949Z,55.91
2019-05-25T01:47:28.917Z,56.52
2019-05-25T01:48:28.918Z,56.34
2019-05-25T01:49:28.884Z,56.13
2019-05-25T01:50:28.905Z,56.54
2019-05-25T01:51:28.872Z,56.44
2019-05-25T01:52:28.865Z,56.65
2019-05-25T01:53:28.863Z,56.85
2019-05-25T01:54:28.831Z,57.46
2019-05-25T01:55:28.828Z,57.18
2019-05-25T01:56:28.809Z,57.97
2019-05-25T01:57:28.799Z,57.89
2019-05-25T01:58:28.797Z,57.59
2019-05-25T01:59:28.775Z,57.66
2019-05-25T02:00:28.761Z,57.68
2019-05-25T02:01:28.772Z,58.20
2019-05-25T02:02:28.742Z,57.99
2019-05-25T02:03:29.042Z,57.99
2019-05-25T02:04:28.720Z,57.79
2019-05-25T02:05:28.707Z,57.79
2019-05-25T02:06:28.701Z,57.89
2019-05-25T02:07:28.691Z,57.79
2019-05-25T02:08:28.677Z,57.28
2019-05-25T02:09:28.694Z,58.22
2019-05-25T02:10:28.667Z,57.92
2019-05-25T02:11:28.637Z,58.29
2019-05-25T02:12:28.634Z,59.54
2019-05-25T02:13:28.620Z,59.14
2019-05-25T02:14:28.613Z,60.86
2019-05-25T02:15:28.611Z,60.76
2019-05-25T02:16:28.613Z,61.27
2019-05-25T02:17:28.573Z,61.57
2019-05-25T02:18:28.570Z,62.29
2019-05-25T02:19:28.555Z,62.72
2019-05-25T02:20:28.548Z,62.41
2019-05-25T02:21:28.532Z,62.41
2019-05-25T02:22:28.535Z,62.93
2019-05-25T02:23:28.579Z,62.82
2019-05-25T02:24:28.504Z,62.93
2019-05-25T02:25:28.482Z,63.43
2019-05-25T02:26:28.467Z,63.46
2019-05-25T02:27:28.486Z,63.43
2019-05-25T02:28:28.483Z,63.67
2019-05-25T02:29:28.447Z,63.84
2019-05-25T02:30:28.431Z,63.97
2019-05-25T02:31:28.423Z,64.28
2019-05-25T02:32:28.404Z,64.38
2019-05-25T02:33:28.643Z,64.99
2019-05-25T02:34:28.389Z,64.79
2019-05-25T02:35:28.378Z,65.50
2019-05-25T02:36:28.361Z,65.80
2019-05-25T02:37:28.351Z,66.00
2019-05-25T02:38:28.359Z,66.14
2019-05-25T02:39:28.837Z,66.24
2019-05-25T02:40:28.329Z,66.35
2019-05-25T02:41:28.334Z,66.75
2019-05-25T02:42:28.291Z,66.55
2019-05-25T02:43:28.313Z,66.55
2019-05-25T02:44:28.280Z,66.44
2019-05-25T02:45:28.274Z,66.14
2019-05-25T02:46:28.284Z,66.55
2019-05-25T02:47:28.234Z,66.85
2019-05-25T02:48:28.226Z,66.55
2019-05-25T02:49:28.228Z,66.65
2019-05-25T02:50:28.221Z,66.65
2019-05-25T02:51:28.202Z,66.55
2019-05-25T02:52:28.201Z,66.68
2019-05-25T02:53:28.167Z,66.85
2019-05-25T02:54:28.193Z,67.05
2019-05-25T02:55:34.473Z,66.99
2019-05-25T02:56:29.171Z,66.78
2019-05-25T02:57:28.141Z,66.47
2019-05-25T02:58:28.125Z,67.05
2019-05-25T02:59:28.101Z,66.68
2019-05-25T03:00:28.212Z,66.78
2019-05-25T03:01:28.087Z,66.27
2019-05-25T03:02:28.082Z,66.38
2019-05-25T03:03:28.063Z,66.47
2019-05-25T03:04:28.058Z,66.38
2019-05-25T03:05:28.039Z,67.29
2019-05-25T03:06:28.086Z,67.90
2019-05-25T03:07:28.022Z,67.60
2019-05-25T03:08:28.002Z,67.60
2019-05-25T03:09:28.000Z,67.90
2019-05-25T03:10:27.978Z,67.19
2019-05-25T03:11:27.979Z,68.21
2019-05-25T03:12:27.972Z,67.49
2019-05-25T03:13:27.955Z,67.60
2019-05-25T03:14:27.938Z,68.54
2019-05-25T03:15:27.940Z,68.85
2019-05-25T03:16:27.911Z,68.65
2019-05-25T03:17:27.948Z,67.43
2019-05-25T03:18:27.893Z,68.75
2019-05-25T03:19:27.892Z,68.65
2019-05-25T03:20:27.874Z,68.44
2019-05-25T03:21:27.857Z,67.32
2019-05-25T03:22:27.845Z,68.54
2019-05-25T03:23:27.881Z,67.73
2019-05-25T03:24:27.834Z,68.34
2019-05-25T03:25:27.827Z,69.15
2019-05-25T03:26:27.805Z,68.95
2019-05-25T03:27:27.786Z,68.65
2019-05-25T03:28:27.797Z,69.06
2019-05-25T03:29:27.795Z,69.15
2019-05-25T03:30:27.770Z,69.46
2019-05-25T03:31:27.754Z,69.15
2019-05-25T03:32:27.732Z,68.85
2019-05-25T03:33:27.763Z,69.06
2019-05-25T03:34:27.714Z,69.36
2019-05-25T03:35:27.725Z,69.36
2019-05-25T03:36:27.692Z,69.36
2019-05-25T03:37:27.679Z,69.76
2019-05-25T03:38:27.661Z,70.07
2019-05-25T03:39:27.671Z,70.28
2019-05-25T03:40:27.649Z,70.48
2019-05-25T03:41:27.648Z,70.68
2019-05-25T03:42:27.620Z,69.87
2019-05-25T03:43:27.612Z,69.67
2019-05-25T03:44:27.604Z,70.68
2019-05-25T03:45:27.582Z,70.17
2019-05-25T03:46:27.578Z,70.68
2019-05-25T03:47:27.574Z,70.48
2019-05-25T03:48:27.554Z,70.58
2019-05-25T03:49:27.558Z,70.58
2019-05-25T03:50:27.531Z,70.38
2019-05-25T03:51:27.520Z,70.58
2019-05-25T03:52:27.511Z,70.48
2019-05-25T03:53:27.511Z,70.68
2019-05-25T03:54:27.501Z,70.58
2019-05-25T03:55:27.496Z,70.58
2019-05-25T03:56:27.464Z,70.89
2019-05-25T03:57:27.453Z,70.99
2019-05-25T03:58:27.439Z,71.30
2019-05-25T03:59:27.426Z,70.99
2019-05-25T04:00:27.771Z,71.50
2019-05-25T04:01:27.411Z,71.30
2019-05-25T04:02:27.393Z,71.39
2019-05-25T04:03:27.383Z,71.50
2019-05-25T04:04:27.379Z,71.12
2019-05-25T04:05:27.363Z,71.43
2019-05-25T04:06:27.376Z,71.43
2019-05-25T04:07:27.338Z,71.39
2019-05-25T04:08:27.342Z,71.30
2019-05-25T04:09:27.313Z,71.09
2019-05-25T04:10:27.305Z,70.89
2019-05-25T04:11:27.310Z,71.16
2019-05-25T04:12:27.286Z,70.86
2019-05-25T04:13:27.309Z,70.34
2019-05-25T04:14:27.254Z,70.14
2019-05-25T04:15:27.239Z,70.31
2019-05-25T04:16:27.227Z,69.70
2019-05-25T04:17:27.253Z,69.63
2019-05-25T04:18:27.210Z,69.90
2019-05-25T04:19:27.198Z,70.41
2019-05-25T04:20:27.185Z,70.10
2019-05-25T04:21:27.178Z,70.10
2019-05-25T04:22:27.169Z,69.70
2019-05-25T04:23:27.174Z,69.40
2019-05-25T04:24:27.156Z,68.99
2019-05-25T04:25:27.136Z,69.26
2019-05-25T04:26:27.733Z,69.77
2019-05-25T04:27:27.114Z,68.55
2019-05-25T04:28:27.096Z,68.96
2019-05-25T04:29:27.100Z,68.01
2019-05-25T04:30:27.072Z,67.80
2019-05-25T04:31:27.062Z,68.62
2019-05-25T04:32:27.059Z,68.82
2019-05-25T04:33:27.047Z,68.49
2019-05-25T04:34:27.271Z,67.88
2019-05-25T04:35:27.025Z,67.77
2019-05-25T04:36:27.012Z,67.97
2019-05-25T04:37:27.013Z,67.47
2019-05-25T04:38:26.986Z,67.36
2019-05-25T04:39:26.987Z,67.77
2019-05-25T04:40:27.007Z,67.97
2019-05-25T04:41:26.948Z,67.77
2019-05-25T04:42:26.945Z,67.57
2019-05-25T04:43:26.935Z,67.80
2019-05-25T04:44:26.937Z,66.99
2019-05-25T04:45:26.921Z,67.67
2019-05-25T04:46:26.929Z,66.96
2019-05-25T04:47:27.433Z,67.97
2019-05-25T04:48:26.885Z,67.88
2019-05-25T04:49:26.859Z,67.80
2019-05-25T04:50:26.853Z,67.57
2019-05-25T04:51:26.849Z,67.16
2019-05-25T04:52:26.854Z,67.88
2019-05-25T04:53:26.879Z,67.77
2019-05-25T04:54:26.811Z,68.08
2019-05-25T04:55:26.807Z,67.97
2019-05-25T04:56:38.845Z,66.96
2019-05-25T04:57:27.816Z,68.18
2019-05-25T04:58:26.761Z,68.08
2019-05-25T04:59:26.790Z,67.71
2019-05-25T05:00:26.741Z,68.18
2019-05-25T05:01:26.724Z,68.28
2019-05-25T05:02:26.724Z,67.06
2019-05-25T05:03:27.600Z,67.67
2019-05-25T05:04:26.709Z,67.77
2019-05-25T05:05:26.690Z,67.97
2019-05-25T05:06:26.747Z,68.11
2019-05-25T05:07:26.663Z,66.86
2019-05-25T05:08:26.782Z,67.67
2019-05-25T05:09:26.657Z,67.77
2019-05-25T05:10:26.650Z,67.47
2019-05-25T05:11:26.736Z,67.47
2019-05-25T05:12:26.880Z,68.08
2019-05-25T05:13:26.653Z,67.67
2019-05-25T05:14:26.633Z,67.47
2019-05-25T05:15:26.721Z,67.10
2019-05-25T05:16:26.635Z,68.01
2019-05-25T05:17:26.758Z,67.80
2019-05-25T05:18:26.557Z,67.50
2019-05-25T05:19:26.533Z,67.71
2019-05-25T05:20:26.516Z,67.80
2019-05-25T05:21:26.500Z,67.19
2019-05-25T05:22:26.570Z,66.58
2019-05-25T05:23:26.488Z,68.01
2019-05-25T05:24:26.483Z,67.63
2019-05-25T05:25:26.467Z,67.83
2019-05-25T05:26:26.449Z,68.24
2019-05-25T05:27:26.444Z,68.14
2019-05-25T05:28:26.798Z,68.65
2019-05-25T05:29:26.435Z,68.35
2019-05-25T05:30:26.413Z,67.60
2019-05-25T05:31:26.392Z,68.44
2019-05-25T05:32:27.823Z,68.52
2019-05-25T05:33:26.382Z,68.55
2019-05-25T05:34:26.408Z,68.41
2019-05-25T05:35:26.372Z,68.44
2019-05-25T05:36:26.344Z,67.53
2019-05-25T05:37:26.320Z,68.55
2019-05-25T05:38:26.356Z,68.14
2019-05-25T05:39:26.328Z,67.43
2019-05-25T05:40:40.401Z,68.32
2019-05-25T05:41:26.286Z,68.32
2019-05-25T05:42:26.280Z,67.50
2019-05-25T05:43:26.269Z,67.19
2019-05-25T05:44:26.284Z,68.52
2019-05-25T05:45:26.256Z,68.41
2019-05-25T05:46:26.254Z,68.52
2019-05-25T05:47:26.214Z,68.41
2019-05-25T05:48:26.200Z,68.32
2019-05-25T05:49:26.186Z,68.32
2019-05-25T05:50:26.269Z,67.30
2019-05-25T05:51:26.164Z,68.62
2019-05-25T05:52:26.159Z,68.62
2019-05-25T05:53:26.195Z,67.60
2019-05-25T05:54:26.130Z,67.40
2019-05-25T05:55:26.120Z,68.52
2019-05-25T05:56:26.430Z,68.62
2019-05-25T05:57:26.108Z,68.62
2019-05-25T05:58:26.121Z,67.80
2019-05-25T05:59:26.104Z,68.32
2019-05-25T06:00:26.080Z,68.41
2019-05-25T06:01:26.049Z,68.82
2019-05-25T06:02:26.046Z,68.18
2019-05-25T06:03:26.611Z,68.18
2019-05-25T06:04:26.038Z,67.77
2019-05-25T06:05:26.018Z,66.76
2019-05-25T06:06:26.089Z,67.13
2019-05-25T06:07:27.546Z,66.69
2019-05-25T06:08:25.991Z,66.90
2019-05-25T06:09:25.963Z,66.49
2019-05-25T06:10:25.959Z,65.88
2019-05-25T06:11:25.952Z,66.60
2019-05-25T06:12:25.928Z,66.26
2019-05-25T06:13:25.943Z,65.45
2019-05-25T06:14:25.920Z,65.01
2019-05-25T06:15:25.909Z,63.86
2019-05-25T06:16:25.893Z,62.82
2019-05-25T06:17:25.917Z,61.78
2019-05-25T06:18:25.882Z,60.43
2019-05-25T06:19:25.888Z,59.59
2019-05-25T06:20:25.838Z,58.56
2019-05-25T06:21:25.846Z,58.25
2019-05-25T06:22:26.049Z,57.42
2019-05-25T06:23:25.901Z,57.18
2019-05-25T06:24:25.819Z,56.58
2019-05-25T06:25:25.805Z,57.06
2019-05-25T06:26:25.779Z,56.45
2019-05-25T06:27:27.706Z,55.92
2019-05-25T06:28:25.762Z,56.23
2019-05-25T06:29:25.739Z,55.94
2019-05-25T06:30:25.747Z,55.62
2019-05-25T06:31:25.719Z,55.24
2019-05-25T06:32:25.718Z,55.67
2019-05-25T06:33:25.695Z,56.00
2019-05-25T06:34:25.685Z,55.74
2019-05-25T06:35:25.748Z,55.14
2019-05-25T06:36:25.665Z,55.11
2019-05-25T06:37:25.648Z,53.25
2019-05-25T06:38:25.636Z,53.30
2019-05-25T06:39:25.628Z,52.67
2019-05-25T06:40:25.628Z,52.51
2019-05-25T06:41:25.619Z,51.28
2019-05-25T06:42:25.611Z,50.38
2019-05-25T06:43:25.585Z,48.25
2019-05-25T06:44:25.580Z,47.03
2019-05-25T06:45:25.602Z,44.96
2019-05-25T06:46:25.559Z,43.43
2019-05-25T06:47:25.543Z,43.24
2019-05-25T06:48:25.550Z,42.85
2019-05-25T06:49:25.530Z,43.66
2019-05-25T06:50:25.501Z,43.77
2019-05-25T06:51:25.503Z,43.68
2019-05-25T06:52:25.480Z,42.49
2019-05-25T06:53:25.497Z,37.63
2019-05-25T06:54:25.460Z,36.32
2019-05-25T06:55:25.445Z,37.41
2019-05-25T06:56:25.440Z,35.87
2019-05-25T06:57:25.423Z,32.98
2019-05-25T06:58:25.438Z,31.56
2019-05-25T06:59:25.466Z,32.84
2019-05-25T07:00:25.386Z,35.31
2019-05-25T07:01:25.390Z,37.29
2019-05-25T07:02:25.382Z,39.36
2019-05-25T07:03:25.376Z,39.84
2019-05-25T07:04:25.351Z,40.59
2019-05-25T07:05:25.519Z,42.05
2019-05-25T07:06:25.339Z,43.30
2019-05-25T07:07:25.328Z,45.04
2019-05-25T07:08:25.298Z,45.77
2019-05-25T07:09:25.321Z,46.69
2019-05-25T07:10:25.318Z,46.51
2019-05-25T07:11:25.343Z,47.02
2019-05-25T07:12:25.277Z,46.61
2019-05-25T07:13:28.380Z,47.12
2019-05-25T07:14:25.251Z,47.32
2019-05-25T07:15:25.233Z,47.72
2019-05-25T07:16:25.235Z,47.44
2019-05-25T07:17:25.270Z,48.37
2019-05-25T07:18:25.190Z,48.07
2019-05-25T07:19:25.261Z,47.86
2019-05-25T07:20:25.247Z,48.37
2019-05-25T07:21:25.182Z,47.66
2019-05-25T07:22:25.162Z,47.97
2019-05-25T07:23:25.189Z,48.44
2019-05-25T07:24:25.182Z,47.14
2019-05-25T07:25:25.171Z,47.54
2019-05-25T07:26:25.120Z,47.74
2019-05-25T07:27:25.095Z,48.85
2019-05-25T07:28:25.105Z,48.25
2019-05-25T07:29:25.131Z,48.05
2019-05-25T07:30:25.105Z,48.35
2019-05-25T07:31:25.211Z,47.64
2019-05-25T07:32:25.073Z,48.77
2019-05-25T07:33:25.083Z,48.09
2019-05-25T07:34:25.025Z,47.86
2019-05-25T07:35:25.079Z,48.07
2019-05-25T07:36:25.000Z,48.27
2019-05-25T07:37:24.985Z,47.99
2019-05-25T07:38:25.002Z,48.67
2019-05-25T07:39:24.990Z,47.64
2019-05-25T07:40:24.987Z,47.22
2019-05-25T07:41:24.957Z,46.83
2019-05-25T07:42:24.967Z,45.08
2019-05-25T07:43:24.935Z,45.10
2019-05-25T07:44:24.906Z,44.92
2019-05-25T07:45:24.933Z,42.79
2019-05-25T07:46:24.912Z,42.71
2019-05-25T07:47:24.898Z,43.27
2019-05-25T07:48:24.920Z,44.92
2019-05-25T07:49:24.884Z,45.25
2019-05-25T07:50:24.838Z,45.97
2019-05-25T07:51:24.831Z,45.97
2019-05-25T07:52:24.819Z,45.87
2019-05-25T07:53:24.825Z,47.12
2019-05-25T07:54:24.788Z,47.86
2019-05-25T07:55:24.811Z,48.27
2019-05-25T07:56:24.777Z,48.49
2019-05-25T07:57:28.446Z,48.79
2019-05-25T07:58:24.766Z,49.50
2019-05-25T07:59:24.744Z,49.93
2019-05-25T08:00:24.745Z,50.23
2019-05-25T08:01:24.716Z,50.15
2019-05-25T08:02:24.712Z,50.35
2019-05-25T08:03:24.940Z,51.26
2019-05-25T08:04:24.679Z,51.08
2019-05-25T08:05:24.674Z,50.85
2019-05-25T08:06:24.666Z,50.53
2019-05-25T08:07:24.661Z,50.23
2019-05-25T08:08:24.659Z,50.13
2019-05-25T08:09:24.677Z,50.33
2019-05-25T08:10:24.618Z,50.73
2019-05-25T08:11:24.601Z,50.02
2019-05-25T08:12:24.593Z,50.00
2019-05-25T08:13:24.673Z,50.02
2019-05-25T08:14:24.579Z,50.33
2019-05-25T08:15:24.572Z,50.33
2019-05-25T08:16:24.557Z,50.02
2019-05-25T08:17:24.575Z,50.63
2019-05-25T08:18:24.546Z,50.63
2019-05-25T08:19:24.524Z,50.53
2019-05-25T08:20:24.528Z,50.96
2019-05-25T08:21:24.503Z,52.17
2019-05-25T08:22:24.484Z,52.29
2019-05-25T08:23:24.486Z,52.09
2019-05-25T08:24:24.458Z,52.80
2019-05-25T08:25:24.445Z,52.80
2019-05-25T08:26:24.466Z,52.69
2019-05-25T08:27:24.420Z,52.69
2019-05-25T08:28:32.842Z,52.26
2019-05-25T08:29:25.469Z,52.49
2019-05-25T08:30:24.406Z,52.69
2019-05-25T08:31:24.375Z,52.80
2019-05-25T08:32:24.385Z,52.69
2019-05-25T08:33:24.355Z,52.89
2019-05-25T08:34:24.342Z,53.32
2019-05-25T08:35:24.678Z,53.02
2019-05-25T08:36:24.348Z,53.12
2019-05-25T08:37:24.318Z,53.75
2019-05-25T08:38:24.297Z,53.85
2019-05-25T08:39:24.291Z,54.56
2019-05-25T08:40:24.290Z,54.66
2019-05-25T08:41:24.289Z,55.19
2019-05-25T08:42:24.259Z,55.06
2019-05-25T08:43:24.245Z,55.09
2019-05-25T08:44:24.231Z,55.69
2019-05-25T08:45:26.035Z,55.69
2019-05-25T08:46:24.228Z,56.30
2019-05-25T08:47:24.224Z,55.77
2019-05-25T08:48:24.202Z,55.90
2019-05-25T08:49:24.172Z,55.99
2019-05-25T08:50:37.100Z,56.32
2019-05-25T08:51:25.198Z,56.20
2019-05-25T08:52:24.167Z,56.43
2019-05-25T08:53:39.961Z,56.43
2019-05-25T08:54:25.129Z,56.20
2019-05-25T08:55:24.137Z,56.60
2019-05-25T08:56:24.101Z,56.70
2019-05-25T08:57:24.091Z,56.93
2019-05-25T08:58:24.096Z,56.93
2019-05-25T08:59:24.071Z,57.06
2019-05-25T09:00:24.095Z,57.56
2019-05-25T09:01:24.036Z,57.16
2019-05-25T09:02:24.027Z,56.96
2019-05-25T09:03:24.056Z,58.37
2019-05-25T09:04:25.724Z,58.27
2019-05-25T09:05:25.183Z,57.34
2019-05-25T09:06:23.985Z,57.34
2019-05-25T09:07:23.978Z,57.34
2019-05-25T09:08:23.966Z,57.21
2019-05-25T09:09:23.969Z,57.41
2019-05-25T09:10:23.946Z,56.73
2019-05-25T09:11:23.957Z,57.94
2019-05-25T09:12:23.914Z,57.64
2019-05-25T09:13:23.911Z,57.23
2019-05-25T09:14:23.899Z,56.83
2019-05-25T09:15:23.890Z,57.76
2019-05-25T09:16:23.887Z,58.37
2019-05-25T09:17:23.891Z,58.17
2019-05-25T09:18:23.855Z,58.04
2019-05-25T09:19:23.842Z,58.47
2019-05-25T09:20:23.839Z,58.87
2019-05-25T09:21:23.843Z,58.87
2019-05-25T09:22:23.889Z,59.15
2019-05-25T09:23:23.794Z,57.54
2019-05-25T09:24:23.783Z,57.31
2019-05-25T09:25:23.785Z,57.21
2019-05-25T09:26:23.787Z,55.77
2019-05-25T09:27:23.763Z,56.24
2019-05-25T09:28:23.768Z,54.91
2019-05-25T09:29:23.741Z,53.88
2019-05-25T09:30:23.729Z,53.05
2019-05-25T09:31:23.712Z,52.72
2019-05-25T09:32:23.696Z,52.72
2019-05-25T09:33:23.767Z,52.49
2019-05-25T09:34:23.702Z,52.22
2019-05-25T09:35:23.661Z,52.44
2019-05-25T09:36:23.654Z,52.74
2019-05-25T09:37:23.648Z,53.05
2019-05-25T09:38:23.644Z,53.17
2019-05-25T09:39:23.667Z,53.38
2019-05-25T09:40:23.600Z,52.80
2019-05-25T09:41:23.602Z,53.63
2019-05-25T09:42:23.588Z,54.23
2019-05-25T09:43:23.575Z,54.53
2019-05-25T09:44:23.587Z,54.66
2019-05-25T09:45:23.561Z,54.76
2019-05-25T09:46:23.537Z,54.96
2019-05-25T09:47:23.531Z,54.76
2019-05-25T09:48:23.521Z,55.36
2019-05-25T09:49:23.554Z,55.79
2019-05-25T09:50:23.497Z,56.60
2019-05-25T09:51:23.480Z,56.37
2019-05-25T09:52:23.478Z,55.97
2019-05-25T09:53:23.473Z,55.57
2019-05-25T09:54:23.482Z,55.16
2019-05-25T09:55:23.467Z,54.86
2019-05-25T09:56:23.505Z,54.63
2019-05-25T09:57:23.410Z,55.24
2019-05-25T09:58:23.404Z,54.73
2019-05-25T09:59:23.410Z,54.94
2019-05-25T10:00:23.412Z,54.94
2019-05-25T10:01:23.371Z,55.34
2019-05-25T10:02:23.351Z,54.83
2019-05-25T10:03:23.340Z,54.81
2019-05-25T10:04:23.335Z,53.25
2019-05-25T10:05:23.327Z,53.52
2019-05-25T10:06:23.367Z,51.89
2019-05-25T10:07:23.321Z,50.68
2019-05-25T10:08:23.284Z,50.46
2019-05-25T10:09:23.282Z,50.13
2019-05-25T10:10:23.281Z,50.56
2019-05-25T10:11:23.265Z,50.13
2019-05-25T10:12:23.265Z,50.03
2019-05-25T10:13:23.546Z,50.13
2019-05-25T10:14:23.241Z,49.83
2019-05-25T10:15:23.217Z,48.63
2019-05-25T10:16:23.239Z,48.93
2019-05-25T10:17:23.226Z,48.63
2019-05-25T10:18:23.236Z,49.15
2019-05-25T10:19:23.164Z,50.15
2019-05-25T10:20:23.202Z,50.66
2019-05-25T10:21:23.173Z,48.93
2019-05-25T10:22:23.143Z,47.80
2019-05-25T10:23:23.277Z,47.00
2019-05-25T10:24:23.119Z,46.48
2019-05-25T10:25:23.107Z,44.92
2019-05-25T10:26:23.290Z,42.33
2019-05-25T10:27:23.079Z,41.93
2019-05-25T10:28:23.086Z,42.35
2019-05-25T10:29:36.019Z,42.79
2019-05-25T10:30:24.047Z,43.12
2019-05-25T10:31:23.043Z,44.16
2019-05-25T10:32:23.415Z,45.10
2019-05-25T10:33:23.034Z,45.65
2019-05-25T10:34:22.999Z,46.77
2019-05-25T10:35:22.991Z,47.67
2019-05-25T10:36:23.003Z,47.58
2019-05-25T10:37:23.006Z,46.87
2019-05-25T10:38:22.957Z,47.19
2019-05-25T10:39:22.967Z,46.80
2019-05-25T10:40:22.960Z,46.77
2019-05-25T10:41:43.938Z,45.92
2019-05-25T10:42:22.940Z,46.23
2019-05-25T10:43:22.938Z,46.03
2019-05-25T10:44:22.941Z,44.90
2019-05-25T10:45:22.897Z,45.12
2019-05-25T10:46:22.867Z,44.92
2019-05-25T10:47:22.928Z,46.33
2019-05-25T10:48:22.889Z,45.95
2019-05-25T10:49:22.840Z,45.97
2019-05-25T10:50:22.834Z,45.77
2019-05-25T10:51:22.815Z,46.89
2019-05-25T10:52:22.809Z,47.22
2019-05-25T10:53:22.844Z,46.72
2019-05-25T10:54:22.794Z,47.02
2019-05-25T10:55:22.791Z,47.12
2019-05-25T10:56:22.771Z,47.62
2019-05-25T10:57:22.741Z,46.67
2019-05-25T10:58:22.735Z,45.57
2019-05-25T10:59:22.751Z,45.67
2019-05-25T11:00:22.705Z,44.74
2019-05-25T11:01:22.705Z,45.12
2019-05-25T11:02:22.973Z,44.20
2019-05-25T11:03:22.675Z,41.30
2019-05-25T11:04:22.661Z,40.97
2019-05-25T11:05:22.660Z,40.88
2019-05-25T11:06:22.642Z,40.97
2019-05-25T11:07:22.639Z,40.88
2019-05-25T11:08:22.662Z,41.60
2019-05-25T11:09:22.613Z,42.32
2019-05-25T11:10:22.600Z,43.16
2019-05-25T11:11:22.589Z,42.74
2019-05-25T11:12:25.884Z,43.66
2019-05-25T11:13:22.568Z,44.28
2019-05-25T11:14:22.592Z,45.10
2019-05-25T11:15:22.550Z,45.10
2019-05-25T11:16:22.533Z,45.30
2019-05-25T11:17:22.533Z,44.96
2019-05-25T11:18:22.520Z,40.53
2019-05-25T11:19:24.373Z,39.90
2019-05-25T11:20:22.537Z,39.08
2019-05-25T11:21:22.490Z,40.00
2019-05-25T11:22:22.468Z,39.50
2019-05-25T11:23:22.476Z,40.06
2019-05-25T11:24:22.446Z,40.88
2019-05-25T11:25:22.497Z,41.89
2019-05-25T11:26:22.425Z,41.82
2019-05-25T11:27:22.417Z,43.04
2019-05-25T11:28:22.407Z,43.26
2019-05-25T11:29:22.395Z,42.85
2019-05-25T11:30:22.380Z,44.38
2019-05-25T11:31:22.490Z,43.50
2019-05-25T11:32:22.367Z,43.62
2019-05-25T11:33:22.361Z,43.38
2019-05-25T11:34:22.401Z,42.74
2019-05-25T11:35:22.339Z,42.24
2019-05-25T11:36:22.318Z,41.19
2019-05-25T11:37:22.300Z,39.76
2019-05-25T11:38:22.290Z,39.74
2019-05-25T11:39:22.277Z,39.24
2019-05-25T11:40:22.285Z,39.52
2019-05-25T11:41:22.255Z,39.32
2019-05-25T11:42:22.249Z,39.72
2019-05-25T11:43:22.314Z,37.98
2019-05-25T11:44:22.225Z,37.97
2019-05-25T11:45:22.219Z,38.76
2019-05-25T11:46:22.204Z,37.45
2019-05-25T11:47:22.190Z,37.47
2019-05-25T11:48:22.502Z,38.22
2019-05-25T11:49:23.080Z,39.56
2019-05-25T11:50:22.395Z,39.69
2019-05-25T11:51:22.197Z,40.52
2019-05-25T11:52:22.145Z,41.93
2019-05-25T11:53:22.168Z,41.21
2019-05-25T11:54:22.167Z,41.61
2019-05-25T11:55:22.116Z,41.24
2019-05-25T11:56:22.087Z,42.16
2019-05-25T11:57:22.080Z,42.88
2019-05-25T11:58:22.062Z,42.99
2019-05-25T11:59:22.059Z,43.62
2019-05-25T12:00:25.557Z,43.52
2019-05-25T12:01:22.089Z,43.70
2019-05-25T12:02:22.023Z,44.08
2019-05-25T12:03:22.703Z,43.70
2019-05-25T12:04:22.007Z,43.50
2019-05-25T12:05:22.012Z,44.10
2019-05-25T12:06:21.977Z,44.70
2019-05-25T12:07:21.974Z,44.60
2019-05-25T12:08:21.979Z,44.62
2019-05-25T12:09:21.950Z,45.02
2019-05-25T12:10:21.976Z,44.54
2019-05-25T12:11:21.918Z,45.14
2019-05-25T12:12:21.912Z,43.90
2019-05-25T12:13:21.905Z,43.50
2019-05-25T12:14:21.903Z,43.58
2019-05-25T12:15:21.876Z,42.88
2019-05-25T12:16:21.887Z,42.85
2019-05-25T12:17:21.879Z,42.66
2019-05-25T12:18:21.851Z,42.13
2019-05-25T12:19:21.836Z,40.58
2019-05-25T12:20:21.827Z,40.28
2019-05-25T12:21:21.841Z,40.99
2019-05-25T12:22:21.804Z,41.39
2019-05-25T12:23:21.794Z,41.33
2019-05-25T12:24:21.778Z,42.05
2019-05-25T12:25:21.782Z,43.08
2019-05-25T12:26:21.755Z,43.40
2019-05-25T12:27:21.778Z,45.02
2019-05-25T12:28:21.777Z,45.34
2019-05-25T12:29:21.723Z,44.87
2019-05-25T12:30:21.719Z,44.96
2019-05-25T12:31:21.722Z,45.97
2019-05-25T12:32:21.785Z,46.37
2019-05-25T12:33:21.690Z,45.87
2019-05-25T12:34:21.668Z,45.77
2019-05-25T12:35:21.664Z,45.97
2019-05-25T12:36:21.666Z,45.65
2019-05-25T12:37:21.649Z,45.75
2019-05-25T12:38:21.641Z,45.75
2019-05-25T12:39:21.619Z,45.04
2019-05-25T12:40:21.629Z,45.53
2019-05-25T12:41:21.592Z,44.62
2019-05-25T12:42:28.505Z,44.52
2019-05-25T12:43:21.624Z,44.40
2019-05-25T12:44:21.589Z,44.90
2019-05-25T12:45:21.575Z,44.70
2019-05-25T12:46:21.565Z,44.30
2019-05-25T12:47:21.519Z,45.32
2019-05-25T12:48:21.516Z,45.02
2019-05-25T12:49:21.522Z,45.04
2019-05-25T12:50:21.508Z,45.84
2019-05-25T12:51:21.500Z,46.97
2019-05-25T12:52:21.475Z,47.50